Time;durP1;ratioP1;P1;durP2;ratioP2;P2;SDS_P1;SDS_P2;PMS_P1;PMS_P2;Temp;Humidity;BMP_temperature;BMP_pressure;BME280_temperature;BME280_humidity;BME280_pressure;Samples;Min_cycle;Max_cycle;Signal;HPM_P1;HPM_P2
2022/04/24 00:04:15;;;;;;;7.05;5.22;;;15.30;70.30;;;;;;10533625;28;20106;-60
2022/04/24 00:09:17;;;;;;;5.88;4.45;;;15.30;70.30;;;;;;10538380;28;20066;-59
2022/04/24 00:14:19;;;;;;;5.95;4.88;;;15.30;70.30;;;;;;10539197;28;20024;-60
2022/04/24 00:19:20;;;;;;;7.78;4.38;;;15.30;70.40;;;;;;10530119;28;20040;-59
2022/04/24 00:24:24;;;;;;;6.68;4.35;;;15.20;70.30;;;;;;10523691;28;20073;-59
2022/04/24 00:29:25;;;;;;;6.65;4.57;;;15.20;70.30;;;;;;10528080;28;20109;-59
2022/04/24 00:34:26;;;;;;;7.40;4.50;;;15.20;70.40;;;;;;10527867;28;20028;-60
2022/04/24 00:39:27;;;;;;;7.15;4.43;;;15.10;70.40;;;;;;10531546;28;20390;-60
2022/04/24 00:44:28;;;;;;;5.20;4.28;;;15.10;70.40;;;;;;10527831;28;20032;-60
2022/04/24 00:49:30;;;;;;;5.28;4.30;;;15.10;70.40;;;;;;10526851;28;20034;-59
2022/04/24 00:54:30;;;;;;;5.43;4.05;;;15.00;71.00;;;;;;10527565;28;20402;-59
2022/04/24 00:59:31;;;;;;;6.05;4.20;;;15.00;70.40;;;;;;10527655;28;20032;-59
2022/04/24 01:04:36;;;;;;;5.25;4.22;;;15.00;70.40;;;;;;10527098;28;20059;-59
2022/04/24 01:09:37;;;;;;;4.53;3.65;;;14.90;70.40;;;;;;10521601;28;20028;-59
2022/04/24 01:14:37;;;;;;;6.25;4.53;;;14.90;70.50;;;;;;10527363;28;20115;-59
2022/04/24 01:19:38;;;;;;;4.35;3.92;;;14.90;70.50;;;;;;10526800;28;20036;-58
2022/04/24 01:24:39;;;;;;;6.05;4.35;;;14.90;70.50;;;;;;10521083;28;20034;-59
2022/04/24 01:29:39;;;;;;;5.18;3.90;;;14.80;70.50;;;;;;10505197;28;20028;-59
2022/04/24 01:34:40;;;;;;;5.88;4.25;;;14.80;70.50;;;;;;10526630;28;20032;-58
2022/04/24 01:39:41;;;;;;;5.88;3.72;;;14.80;70.60;;;;;;10530462;28;20086;-60
2022/04/24 01:44:41;;;;;;;5.20;4.00;;;14.70;70.50;;;;;;10535185;28;20028;-60
2022/04/24 01:49:42;;;;;;;4.60;3.42;;;14.70;70.50;;;;;;10534723;28;20675;-58
2022/04/24 01:54:43;;;;;;;6.22;4.10;;;14.70;70.50;;;;;;10534443;28;20047;-58
2022/04/24 01:59:43;;;;;;;5.85;3.90;;;14.70;70.60;;;;;;10534120;28;20097;-59
2022/04/24 02:04:44;;;;;;;5.38;3.95;;;14.60;70.50;;;;;;10534184;28;20058;-59
2022/04/24 02:09:45;;;;;;;5.15;3.95;;;14.60;70.50;;;;;;10530728;28;20501;-58
2022/04/24 02:14:46;;;;;;;5.13;3.83;;;14.60;70.40;;;;;;10533056;28;20518;-58
2022/04/24 02:19:46;;;;;;;6.32;3.80;;;14.60;70.50;;;;;;10532842;28;20038;-58
2022/04/24 02:24:47;;;;;;;4.30;3.70;;;14.50;70.40;;;;;;10526448;28;20042;-60
2022/04/24 02:30:12;;;;;;;5.03;3.50;;;14.50;70.40;;;;;;10542723;28;20115;-58
2022/04/24 02:35:19;;;;;;;4.45;3.58;;;14.50;70.30;;;;;;10547053;28;20023;-59
2022/04/24 02:40:21;;;;;;;4.25;3.50;;;14.40;70.30;;;;;;10547409;28;20036;-60
2022/04/24 02:45:22;;;;;;;5.82;3.70;;;14.40;70.30;;;;;;10527770;28;20027;-58
2022/04/24 02:50:23;;;;;;;5.55;3.65;;;14.40;70.20;;;;;;10532790;28;20448;-59
2022/04/24 02:55:25;;;;;;;5.90;3.67;;;14.40;70.40;;;;;;10531616;28;20024;-59
2022/04/24 03:00:39;;;;;;;6.90;3.63;;;14.30;70.30;;;;;;10531458;28;20494;-58
2022/04/24 03:05:40;;;;;;;5.25;3.72;;;14.30;70.40;;;;;;10531135;28;20499;-58
2022/04/24 03:10:40;;;;;;;6.30;3.30;;;14.30;70.50;;;;;;10525050;28;20077;-59
2022/04/24 03:15:41;;;;;;;4.70;3.38;;;14.30;71.20;;;;;;10530887;28;20875;-58
2022/04/24 03:20:44;;;;;;;5.88;3.35;;;14.20;70.50;;;;;;10525483;28;20055;-58
2022/04/24 03:25:45;;;;;;;5.43;3.72;;;14.20;70.50;;;;;;10529515;28;20051;-58
2022/04/24 03:30:45;;;;;;;4.65;3.45;;;14.20;71.10;;;;;;10529830;28;20039;-58
2022/04/24 03:35:46;;;;;;;7.72;4.38;;;14.20;70.50;;;;;;10531743;28;20108;-58
2022/04/24 03:40:47;;;;;;;6.20;4.00;;;14.10;70.50;;;;;;10502599;28;20044;-59
2022/04/24 03:45:47;;;;;;;4.78;3.55;;;14.10;70.50;;;;;;10529505;28;20039;-58
2022/04/24 03:50:48;;;;;;;4.50;3.42;;;14.10;70.50;;;;;;10529590;28;20070;-58
2022/04/24 03:55:49;;;;;;;4.15;3.13;;;14.00;70.50;;;;;;10529277;28;20527;-58
2022/04/24 04:00:49;;;;;;;7.90;3.13;;;14.00;70.60;;;;;;10528778;28;20048;-59
2022/04/24 04:05:50;;;;;;;7.10;3.58;;;14.00;70.70;;;;;;10528274;28;20040;-59
2022/04/24 04:10:51;;;;;;;4.40;3.25;;;13.90;70.60;;;;;;10525128;28;20040;-58
2022/04/24 04:15:51;;;;;;;4.60;3.00;;;13.90;70.60;;;;;;10528306;28;20034;-58
2022/04/24 04:20:52;;;;;;;4.68;3.13;;;13.90;70.70;;;;;;10522369;28;20047;-58
2022/04/24 04:25:53;;;;;;;4.53;3.15;;;13.90;70.70;;;;;;10527785;28;20032;-58
2022/04/24 04:30:54;;;;;;;5.78;3.60;;;13.90;70.70;;;;;;10527503;28;20063;-60
2022/04/24 04:35:55;;;;;;;5.00;3.10;;;13.80;70.60;;;;;;10530804;28;20363;-60
2022/04/24 04:40:55;;;;;;;5.68;3.88;;;13.80;70.60;;;;;;10537560;28;20442;-58
2022/04/24 04:45:57;;;;;;;6.60;3.53;;;13.80;70.60;;;;;;10540882;28;20526;-59
2022/04/24 04:50:57;;;;;;;6.63;3.15;;;13.70;70.50;;;;;;10527402;28;20028;-58
2022/04/24 04:55:58;;;;;;;7.90;3.60;;;13.80;70.60;;;;;;10527599;28;20099;-59
2022/04/24 05:01:00;;;;;;;5.47;3.85;;;13.70;70.50;;;;;;10527461;28;20451;-59
2022/04/24 05:06:01;;;;;;;4.45;3.40;;;13.70;70.40;;;;;;10527382;28;20044;-58
2022/04/24 05:11:01;;;;;;;4.80;3.42;;;13.70;70.40;;;;;;10521432;28;20024;-59
2022/04/24 05:16:02;;;;;;;4.03;3.15;;;13.70;70.40;;;;;;10532881;28;20034;-59
2022/04/24 05:21:03;;;;;;;4.82;3.30;;;13.60;70.40;;;;;;10529359;28;20036;-58
2022/04/24 05:26:04;;;;;;;5.30;3.40;;;13.70;70.50;;;;;;10535328;28;20023;-59
2022/04/24 05:31:05;;;;;;;5.97;3.65;;;13.70;70.40;;;;;;10535304;28;20030;-57
2022/04/24 05:36:07;;;;;;;4.40;3.28;;;13.70;70.40;;;;;;10534289;28;20431;-59
2022/04/24 05:41:08;;;;;;;5.75;3.20;;;13.70;70.40;;;;;;10534901;28;20502;-59
2022/04/24 05:46:08;;;;;;;4.65;3.45;;;13.60;70.30;;;;;;10534688;28;20020;-58
2022/04/24 05:51:09;;;;;;;4.95;3.10;;;13.60;70.20;;;;;;10534442;28;20032;-58
2022/04/24 05:56:10;;;;;;;4.55;3.42;;;13.70;70.30;;;;;;10534189;28;20024;-59
2022/04/24 06:01:10;;;;;;;6.55;3.50;;;13.60;70.10;;;;;;10533850;28;20486;-58
2022/04/24 06:06:11;;;;;;;4.70;3.33;;;13.60;70.10;;;;;;10534043;28;20055;-59
2022/04/24 06:11:12;;;;;;;6.28;3.13;;;13.60;70.10;;;;;;10530831;28;20459;-59
2022/04/24 06:16:13;;;;;;;4.35;3.00;;;13.60;70.00;;;;;;10533985;28;20039;-58
2022/04/24 06:21:13;;;;;;;4.55;3.28;;;13.60;70.00;;;;;;10528037;28;20082;-59
2022/04/24 06:26:14;;;;;;;4.85;3.55;;;13.70;70.00;;;;;;10532208;28;20501;-58
2022/04/24 06:31:15;;;;;;;3.92;3.13;;;13.70;70.00;;;;;;10532967;28;20389;-58
2022/04/24 06:36:15;;;;;;;4.57;3.20;;;13.50;69.80;;;;;;10535871;28;20028;-58
2022/04/24 06:41:16;;;;;;;5.07;3.10;;;13.70;69.80;;;;;;10532495;28;20135;-60
2022/04/24 06:46:18;;;;;;;5.15;3.42;;;13.60;69.80;;;;;;10533304;28;20031;-58
2022/04/24 06:51:19;;;;;;;4.30;2.90;;;13.60;69.70;;;;;;10533118;28;20040;-57
2022/04/24 06:56:20;;;;;;;4.55;2.88;;;13.60;69.80;;;;;;10531933;28;20039;-59
2022/04/24 07:01:22;;;;;;;3.53;2.83;;;13.70;69.80;;;;;;10531049;28;20043;-58
2022/04/24 07:06:23;;;;;;;4.10;3.15;;;13.70;69.90;;;;;;10531545;28;20044;-59
2022/04/24 07:11:24;;;;;;;4.35;3.08;;;13.70;70.00;;;;;;10527880;28;20394;-58
2022/04/24 07:16:25;;;;;;;4.07;3.10;;;13.70;70.00;;;;;;10531192;28;20083;-59
2022/04/24 07:21:25;;;;;;;9.13;3.20;;;13.60;69.90;;;;;;10524749;28;20064;-59
2022/04/24 07:26:26;;;;;;;3.60;2.75;;;13.70;70.30;;;;;;10530650;28;20039;-59
2022/04/24 07:31:27;;;;;;;4.50;2.75;;;13.80;70.00;;;;;;10527591;28;20028;-58
2022/04/24 07:36:27;;;;;;;3.15;2.47;;;13.80;70.00;;;;;;10532855;28;20024;-58
2022/04/24 07:41:28;;;;;;;4.13;2.55;;;13.80;70.00;;;;;;10528892;28;20043;-58
2022/04/24 07:46:29;;;;;;;3.20;2.65;;;13.80;70.00;;;;;;10529341;28;20028;-59
2022/04/24 07:51:29;;;;;;;4.40;2.95;;;13.80;70.10;;;;;;10529363;28;20379;-58
2022/04/24 07:56:30;;;;;;;4.57;2.63;;;13.80;70.20;;;;;;10526695;28;20065;-58
2022/04/24 08:01:31;;;;;;;3.67;2.75;;;13.80;70.40;;;;;;10528826;28;20130;-59
2022/04/24 08:06:32;;;;;;;6.47;3.55;;;13.70;70.30;;;;;;10528868;28;20040;-59
2022/04/24 08:11:32;;;;;;;3.50;2.55;;;13.80;70.30;;;;;;10523895;28;20035;-61
2022/04/24 08:16:33;;;;;;;3.45;2.53;;;13.80;70.30;;;;;;10529103;28;20672;-58
2022/04/24 08:21:34;;;;;;;5.57;2.50;;;13.80;70.30;;;;;;10526310;28;20057;-59
2022/04/24 08:26:36;;;;;;;3.80;2.85;;;13.90;70.50;;;;;;10528514;28;20028;-58
2022/04/24 08:31:36;;;;;;;3.40;2.53;;;13.90;70.70;;;;;;10528104;28;20114;-59
2022/04/24 08:36:37;;;;;;;6.15;3.72;;;13.90;70.70;;;;;;10529960;28;20119;-59
2022/04/24 08:41:40;;;;;;;2.78;2.13;;;14.00;70.60;;;;;;10528233;28;20040;-58
2022/04/24 08:46:43;;;;;;;4.30;2.53;;;14.00;70.50;;;;;;10528665;28;20059;-58
2022/04/24 08:51:45;;;;;;;4.97;2.60;;;14.10;70.60;;;;;;10514970;28;20024;-58
2022/04/24 08:56:45;;;;;;;3.28;2.10;;;14.10;70.60;;;;;;10517600;28;20029;-57
2022/04/24 09:01:47;;;;;;;4.25;2.58;;;14.10;70.70;;;;;;10466028;28;20516;-59
2022/04/24 09:06:58;;;;;;;3.80;2.00;;;14.20;70.70;;;;;;10484040;28;20742;-59
2022/04/24 09:12:16;;;;;;;3.90;2.25;;;14.20;70.90;;;;;;10482462;28;20041;-57
2022/04/24 09:17:25;;;;;;;3.47;2.10;;;14.30;71.30;;;;;;10475855;28;20565;-57
2022/04/24 09:22:26;;;;;;;3.80;2.40;;;14.30;71.20;;;;;;10477573;28;20112;-58
2022/04/24 09:27:34;;;;;;;3.78;2.08;;;14.30;71.00;;;;;;10483332;28;20017;-57
2022/04/24 09:32:51;;;;;;;3.03;2.30;;;14.40;71.10;;;;;;10482617;28;20044;-58
2022/04/24 09:37:52;;;;;;;2.80;2.00;;;14.40;71.50;;;;;;10481427;28;20411;-60
2022/04/24 09:42:56;;;;;;;3.17;2.00;;;14.50;71.10;;;;;;10482718;28;20538;-57
2022/04/24 09:48:02;;;;;;;2.38;1.83;;;14.50;71.10;;;;;;10482778;28;20043;-59
2022/04/24 09:53:04;;;;;;;4.82;2.47;;;14.60;70.90;;;;;;10482793;28;20050;-55
2022/04/24 09:58:06;;;;;;;3.80;2.00;;;14.60;70.90;;;;;;10483234;28;20032;-58
2022/04/24 10:03:13;;;;;;;4.25;2.00;;;14.70;70.90;;;;;;10487857;28;20521;-61
2022/04/24 10:08:18;;;;;;;3.33;1.90;;;14.70;70.60;;;;;;10485283;28;20070;-61
2022/04/24 10:13:21;;;;;;;2.53;1.80;;;14.80;70.80;;;;;;10479863;28;20078;-58
2022/04/24 10:18:40;;;;;;;2.75;1.92;;;14.80;70.90;;;;;;10490265;28;20028;-58
2022/04/24 10:23:41;;;;;;;2.28;1.77;;;14.90;70.70;;;;;;10483459;28;20530;-58
2022/04/24 10:28:46;;;;;;;3.20;1.92;;;14.90;70.40;;;;;;10489838;28;20085;-58
2022/04/24 10:33:51;;;;;;;2.50;1.90;;;15.00;70.40;;;;;;10489228;28;20591;-58
2022/04/24 10:38:57;;;;;;;2.50;2.00;;;15.10;70.10;;;;;;10491580;28;20029;-58
2022/04/24 10:44:12;;;;;;;4.88;2.08;;;15.20;70.00;;;;;;10488138;28;20547;-60
2022/04/24 10:49:15;;;;;;;4.13;1.73;;;15.20;70.70;;;;;;10481115;28;20063;-57
2022/04/24 10:54:16;;;;;;;3.55;2.17;;;15.30;69.80;;;;;;10488829;28;20024;-56
2022/04/24 10:59:22;;;;;;;4.43;2.22;;;15.40;69.80;;;;;;10488415;28;20033;-57
2022/04/24 11:04:25;;;;;;;3.58;2.03;;;15.40;69.70;;;;;;10488396;28;20053;-59
2022/04/24 11:09:35;;;;;;;2.33;1.92;;;15.50;69.70;;;;;;10485400;28;20768;-61
2022/04/24 11:14:37;;;;;;;2.92;1.50;;;15.60;69.90;;;;;;10488210;28;20131;-60
2022/04/24 11:19:39;;;;;;;2.53;1.75;;;15.70;70.00;;;;;;10487504;28;20067;-60
2022/04/24 11:24:41;;;;;;;2.53;1.80;;;15.80;69.90;;;;;;10481747;28;20027;-57
2022/04/24 11:29:45;;;;;;;2.47;1.85;;;15.80;70.00;;;;;;10487430;28;20047;-57
2022/04/24 11:34:47;;;;;;;3.53;1.42;;;15.90;70.10;;;;;;10481265;28;20063;-57
2022/04/24 11:39:47;;;;;;;6.57;2.05;;;15.90;70.00;;;;;;10490891;28;20044;-57
2022/04/24 11:50:15;;;;;;;3.15;1.98;;;16.10;67.20;;;;;;10486106;28;20395;-57
2022/04/24 11:55:23;;;;;;;3.90;1.98;;;16.10;64.80;;;;;;10486189;28;20086;-56
2022/04/24 12:00:35;;;;;;;4.67;2.30;;;16.20;62.60;;;;;;10477999;28;20068;-58
2022/04/24 12:05:36;;;;;;;4.65;2.15;;;16.30;60.70;;;;;;10485690;28;20423;-64
2022/04/24 12:10:43;;;;;;;2.90;1.90;;;16.30;60.60;;;;;;10483224;28;20028;-55
2022/04/24 12:15:52;;;;;;;2.53;1.60;;;16.20;59.70;;;;;;10485414;28;20028;-57
2022/04/24 12:20:53;;;;;;;3.13;2.10;;;16.00;59.00;;;;;;10461724;28;20848;-56
2022/04/24 12:25:56;;;;;;;3.13;1.95;;;15.90;59.70;;;;;;10484403;28;20035;-67
2022/04/24 12:30:58;;;;;;;2.42;1.80;;;15.90;59.20;;;;;;10485883;28;20046;-58
2022/04/24 12:36:13;;;;;;;3.60;1.75;;;16.10;59.70;;;;;;10481304;28;20063;-55
2022/04/24 12:41:15;;;;;;;4.57;2.17;;;16.60;57.20;;;;;;10485988;28;20036;-56
2022/04/24 12:46:15;;;;;;;3.47;1.90;;;16.70;58.10;;;;;;10486311;28;20028;-60
2022/04/24 12:51:17;;;;;;;2.85;2.10;;;16.60;58.70;;;;;;10485250;28;20047;-57
2022/04/24 12:56:19;;;;;;;4.70;2.00;;;16.20;59.30;;;;;;10485179;28;20126;-57
2022/04/24 13:01:20;;;;;;;4.63;1.50;;;16.00;59.90;;;;;;10483649;28;20044;-57
2022/04/24 13:06:25;;;;;;;1.52;1.10;;;16.10;60.50;;;;;;10484055;28;20399;-58
2022/04/24 13:11:26;;;;;;;3.15;1.50;;;16.40;60.70;;;;;;10480391;28;20043;-55
2022/04/24 13:21:46;;;;;;;3.47;1.30;;;16.80;61.20;;;;;;10473652;28;20063;-59
2022/04/24 13:26:47;;;;;;;1.90;1.40;;;16.90;61.40;;;;;;10484084;28;20039;-58
2022/04/24 13:31:48;;;;;;;2.08;1.42;;;17.00;61.80;;;;;;10483572;28;20379;-57
2022/04/24 13:38:17;;;;;;;2.70;1.35;;;17.20;62.00;;;;;;10492902;28;20029;-58
2022/04/24 13:42:13;;;;;;;1.40;1.10;;;17.30;62.20;;;;;;10492957;28;20040;-57
2022/04/24 13:47:15;;;;;;;1.88;1.20;;;17.90;62.80;;;;;;10492504;28;20074;-58
2022/04/24 13:52:16;;;;;;;1.42;1.10;;;17.50;62.70;;;;;;10482619;28;20501;-57
2022/04/24 13:57:19;;;;;;;1.67;1.00;;;17.40;63.10;;;;;;10491559;28;20114;-57
2022/04/24 14:02:20;;;;;;;4.10;1.40;;;17.40;63.80;;;;;;10491583;28;20029;-56
2022/04/24 14:07:21;;;;;;;1.40;1.00;;;17.40;64.20;;;;;;10488277;28;20033;-57
2022/04/24 14:12:22;;;;;;;1.83;1.13;;;17.40;64.70;;;;;;10489263;28;20047;-57
2022/04/24 14:17:23;;;;;;;2.22;1.30;;;17.40;65.20;;;;;;10492306;28;20499;-57
2022/04/24 14:22:24;;;;;;;2.20;1.30;;;17.50;65.50;;;;;;10489860;28;20044;-56
2022/04/24 14:27:24;;;;;;;2.95;1.60;;;17.60;65.70;;;;;;10491044;28;20495;-57
2022/04/24 14:32:25;;;;;;;2.35;1.38;;;17.60;66.60;;;;;;10491832;28;20038;-58
2022/04/24 14:37:26;;;;;;;2.03;1.25;;;17.70;66.50;;;;;;10475651;28;20044;-57
2022/04/24 14:42:27;;;;;;;1.83;1.40;;;17.80;66.40;;;;;;10490522;28;20044;-57
2022/04/24 14:58:07;;;;;;;1.70;1.40;;;17.90;67.70;;;;;;10493691;28;20723;-57
2022/04/24 15:03:13;;;;;;;2.47;1.40;;;18.00;67.80;;;;;;10489565;28;20159;-55
2022/04/24 15:08:16;;;;;;;1.70;1.13;;;18.00;68.30;;;;;;10486624;28;20025;-57
2022/04/24 15:13:17;;;;;;;1.58;1.13;;;18.20;67.80;;;;;;10489486;28;20670;-57
2022/04/24 15:18:18;;;;;;;2.42;1.30;;;18.30;67.60;;;;;;10489169;28;20032;-57
2022/04/24 15:23:20;;;;;;;2.50;1.23;;;18.40;67.40;;;;;;10483345;28;20032;-57
2022/04/24 15:28:21;;;;;;;1.55;1.30;;;18.60;67.20;;;;;;10488971;28;20032;-57
2022/04/24 15:33:23;;;;;;;2.33;1.42;;;18.60;67.20;;;;;;10488476;28;20458;-57
2022/04/24 15:38:24;;;;;;;1.52;1.33;;;18.70;67.00;;;;;;10490593;28;20041;-57
2022/04/24 15:43:25;;;;;;;1.95;1.30;;;18.70;67.10;;;;;;10488014;28;20025;-57
2022/04/24 15:48:28;;;;;;;1.70;1.25;;;18.70;67.30;;;;;;10486811;28;20037;-57
2022/04/24 15:53:29;;;;;;;1.58;1.45;;;18.70;67.20;;;;;;10487633;28;20028;-57
2022/04/24 15:58:30;;;;;;;1.80;1.23;;;18.70;67.30;;;;;;10486455;28;20037;-57
2022/04/24 16:03:31;;;;;;;1.65;1.40;;;18.70;67.40;;;;;;10487060;28;20092;-57
2022/04/24 16:08:32;;;;;;;2.70;1.63;;;18.60;67.60;;;;;;10484104;28;20052;-58
2022/04/24 16:13:33;;;;;;;3.47;1.38;;;18.50;68.10;;;;;;10487015;28;20013;-56
2022/04/24 16:18:35;;;;;;;1.70;1.27;;;18.30;68.50;;;;;;10486578;28;20044;-57
2022/04/24 16:23:36;;;;;;;2.25;1.50;;;18.30;68.90;;;;;;10480993;28;20051;-57
2022/04/24 16:28:37;;;;;;;1.80;1.40;;;18.20;69.20;;;;;;10485287;28;20507;-57
2022/04/24 16:33:39;;;;;;;2.22;1.45;;;18.10;69.40;;;;;;10485223;28;20028;-57
2022/04/24 16:38:40;;;;;;;2.35;1.23;;;18.00;69.60;;;;;;10488777;28;21046;-56
2022/04/24 16:43:40;;;;;;;2.95;1.70;;;18.00;69.90;;;;;;10485938;28;20021;-57
2022/04/24 16:48:41;;;;;;;2.08;1.40;;;17.90;70.00;;;;;;10485318;28;20032;-57
2022/04/24 16:59:01;;;;;;;1.65;1.38;;;17.80;70.50;;;;;;10484362;28;20676;-57
2022/04/24 17:04:03;;;;;;;3.03;1.50;;;17.70;70.80;;;;;;10485579;28;20079;-57
2022/04/24 17:09:04;;;;;;;2.15;1.40;;;17.70;71.00;;;;;;10480972;28;20082;-57
2022/04/24 17:14:04;;;;;;;1.65;1.40;;;17.70;71.10;;;;;;10485391;28;20102;-57
2022/04/24 17:19:05;;;;;;;2.22;1.33;;;17.60;71.20;;;;;;10485030;28;20098;-57
2022/04/24 17:24:06;;;;;;;2.08;1.30;;;17.60;71.40;;;;;;10478288;28;20021;-58
2022/04/24 17:29:07;;;;;;;2.10;1.25;;;17.50;71.60;;;;;;10484438;28;20033;-56
2022/04/24 17:34:08;;;;;;;4.18;1.52;;;17.50;71.80;;;;;;10484652;28;20097;-58
2022/04/24 17:39:09;;;;;;;2.08;1.60;;;17.50;71.90;;;;;;10486941;28;20043;-58
2022/04/24 17:44:10;;;;;;;1.88;1.35;;;17.40;72.00;;;;;;10474712;28;20013;-57
2022/04/24 17:49:11;;;;;;;2.13;1.77;;;17.40;72.10;;;;;;10484708;28;20032;-58
2022/04/24 17:54:12;;;;;;;2.45;1.70;;;17.40;72.30;;;;;;10484791;28;20545;-58
2022/04/24 17:59:13;;;;;;;2.85;1.58;;;17.30;72.30;;;;;;10484264;28;20074;-57
2022/04/24 18:04:14;;;;;;;2.55;1.80;;;17.30;72.40;;;;;;10484297;28;20419;-56
2022/04/24 18:09:14;;;;;;;1.98;1.52;;;17.20;72.50;;;;;;10481210;28;20020;-57
2022/04/24 18:14:16;;;;;;;3.45;1.60;;;17.20;72.60;;;;;;10483840;28;20060;-57
2022/04/24 18:19:17;;;;;;;2.13;1.42;;;17.10;72.80;;;;;;10484740;28;20032;-57
2022/04/24 18:24:17;;;;;;;2.42;1.70;;;17.00;72.70;;;;;;10483140;28;20024;-58
2022/04/24 18:29:18;;;;;;;1.67;1.38;;;17.00;72.90;;;;;;10491067;28;20494;-57
2022/04/24 18:34:19;;;;;;;2.13;1.60;;;16.90;72.90;;;;;;10490708;28;20017;-57
2022/04/24 18:39:20;;;;;;;2.25;1.70;;;16.90;73.00;;;;;;10494343;28;20514;-58
2022/04/24 18:44:20;;;;;;;4.13;2.00;;;16.80;73.00;;;;;;10490917;28;20040;-57
2022/04/24 18:49:21;;;;;;;3.58;1.70;;;16.80;73.00;;;;;;10489814;28;20139;-58
2022/04/24 18:54:24;;;;;;;2.67;1.70;;;16.70;73.10;;;;;;10489973;28;20335;-59
2022/04/24 18:59:25;;;;;;;3.05;1.77;;;16.70;73.20;;;;;;10490357;28;20582;-58
2022/04/24 19:15:05;;;;;;;2.15;1.55;;;16.50;73.30;;;;;;10490175;28;20028;-57
2022/04/24 19:20:06;;;;;;;3.00;1.65;;;16.40;73.20;;;;;;10489073;28;20063;-57
2022/04/24 19:25:07;;;;;;;2.88;1.65;;;16.40;73.20;;;;;;10483376;28;20103;-57
2022/04/24 19:30:10;;;;;;;5.13;2.92;;;16.30;73.20;;;;;;10486231;28;20115;-59
2022/04/24 19:35:12;;;;;;;5.15;2.70;;;15.50;72.40;;;;;;10487759;28;20063;-57
2022/04/24 19:40:15;;;;;;;4.97;2.40;;;14.40;74.40;;;;;;10477434;28;20057;-55
2022/04/24 19:45:16;;;;;;;4.35;2.40;;;14.40;74.70;;;;;;10484565;28;20040;-56
2022/04/24 19:50:17;;;;;;;5.65;2.33;;;14.70;73.90;;;;;;10483373;28;20048;-55
2022/04/24 19:55:20;;;;;;;3.95;2.15;;;14.90;73.20;;;;;;10485985;28;20039;-56
2022/04/24 20:00:21;;;;;;;5.63;2.50;;;14.90;72.70;;;;;;10485925;28;20036;-57
2022/04/24 20:05:23;;;;;;;2.45;1.75;;;15.10;72.50;;;;;;10485240;28;20123;-56
2022/04/24 20:10:24;;;;;;;4.97;2.40;;;15.20;72.40;;;;;;10483545;28;20059;-56
2022/04/24 20:15:25;;;;;;;3.90;2.13;;;15.30;72.40;;;;;;10480685;28;20052;-57
2022/04/24 20:20:26;;;;;;;6.70;2.17;;;15.70;72.50;;;;;;10482835;28;20120;-56
2022/04/24 20:25:27;;;;;;;3.33;2.05;;;15.30;72.40;;;;;;10483103;28;20032;-58
2022/04/24 20:30:28;;;;;;;3.40;2.20;;;15.30;72.40;;;;;;10484776;28;20505;-55
2022/04/24 20:35:29;;;;;;;3.63;2.10;;;15.40;72.50;;;;;;10485113;28;20532;-54
2022/04/24 20:40:30;;;;;;;4.88;1.95;;;15.30;72.60;;;;;;10480796;28;20094;-56
2022/04/24 20:45:31;;;;;;;2.22;1.70;;;15.30;72.60;;;;;;10484333;28;20607;-56
2022/04/24 20:50:31;;;;;;;2.13;1.83;;;15.30;72.60;;;;;;10482888;28;20027;-56
2022/04/24 20:55:33;;;;;;;3.38;2.17;;;15.30;72.70;;;;;;10482955;28;20029;-56
2022/04/24 21:00:34;;;;;;;3.05;1.67;;;15.30;72.70;;;;;;10483984;28;20062;-56
2022/04/24 21:05:36;;;;;;;3.30;2.20;;;15.30;72.60;;;;;;10478013;28;20048;-52
2022/04/24 21:10:37;;;;;;;5.38;2.63;;;15.20;72.60;;;;;;10480371;28;20036;-54
2022/04/24 21:15:38;;;;;;;4.05;2.25;;;15.20;72.70;;;;;;10479070;28;20101;-54
2022/04/24 21:20:39;;;;;;;4.32;2.70;;;15.20;72.70;;;;;;10473963;28;20041;-51
2022/04/24 21:25:39;;;;;;;4.57;2.38;;;15.10;72.70;;;;;;10475419;28;20037;-56
2022/04/24 21:30:40;;;;;;;5.47;2.20;;;15.10;72.80;;;;;;10455628;28;20021;-56
2022/04/24 21:35:41;;;;;;;4.20;2.58;;;15.10;72.80;;;;;;10459635;28;20029;-55
2022/04/24 21:40:46;;;;;;;4.70;2.38;;;15.10;72.90;;;;;;10452494;28;20032;-55
2022/04/24 21:45:47;;;;;;;3.85;2.45;;;15.00;72.80;;;;;;10454097;28;20025;-55
2022/04/24 21:50:48;;;;;;;3.88;2.33;;;15.00;72.90;;;;;;10453443;28;20033;-56
2022/04/24 21:55:49;;;;;;;5.22;2.58;;;15.00;72.90;;;;;;10452484;28;20029;-57
2022/04/24 22:00:52;;;;;;;3.53;2.55;;;15.00;73.00;;;;;;10462095;28;20039;-55
2022/04/24 22:05:54;;;;;;;4.68;2.35;;;14.90;72.90;;;;;;10478084;28;20044;-56
2022/04/24 22:10:54;;;;;;;4.50;2.42;;;14.90;72.90;;;;;;10492228;28;20016;-55
2022/04/24 22:15:55;;;;;;;3.95;2.35;;;14.80;72.90;;;;;;10492272;28;20028;-56
2022/04/24 22:24:25;;;;;;;3.42;2.28;;;14.80;72.90;;;;;;10487536;28;20556;-56
2022/04/24 22:26:16;;;;;;;3.97;2.78;;;14.80;72.90;;;;;;10491252;28;20531;-56
2022/04/24 22:31:17;;;;;;;4.50;2.78;;;14.80;73.00;;;;;;10491793;28;20119;-56
2022/04/24 22:36:18;;;;;;;4.25;2.67;;;14.70;72.90;;;;;;10494178;28;20020;-55
2022/04/24 22:41:19;;;;;;;4.97;2.45;;;14.70;72.90;;;;;;10490824;28;20043;-56
2022/04/24 22:46:20;;;;;;;4.75;2.88;;;14.70;72.90;;;;;;10490113;28;20024;-56
2022/04/24 22:51:22;;;;;;;4.50;2.53;;;15.30;73.30;;;;;;10489535;28;20025;-56
2022/04/24 22:56:22;;;;;;;4.88;2.40;;;14.70;73.00;;;;;;10489961;28;20548;-56
2022/04/24 23:01:23;;;;;;;5.22;2.63;;;14.60;73.00;;;;;;10489866;28;20090;-56
2022/04/24 23:06:24;;;;;;;4.78;2.50;;;14.50;72.90;;;;;;10489675;28;20127;-56
2022/04/24 23:11:25;;;;;;;5.57;2.58;;;14.50;73.00;;;;;;10486575;28;20394;-56
2022/04/24 23:16:25;;;;;;;3.40;2.45;;;14.50;73.00;;;;;;10489360;28;20020;-56
2022/04/24 23:26:46;;;;;;;3.88;2.15;;;14.40;73.60;;;;;;10489058;28;20017;-56
2022/04/24 23:31:48;;;;;;;6.63;3.00;;;14.40;73.10;;;;;;10489082;28;20674;-56
2022/04/24 23:36:49;;;;;;;5.50;2.78;;;14.40;73.10;;;;;;10491228;28;20099;-55
2022/04/24 23:41:50;;;;;;;4.65;2.65;;;14.30;73.10;;;;;;10488362;28;20558;-56
2022/04/24 23:46:52;;;;;;;6.18;2.92;;;14.30;73.10;;;;;;10488332;28;20036;-56
2022/04/24 23:51:52;;;;;;;3.78;2.50;;;14.30;73.10;;;;;;10487875;28;20055;-57
2022/04/24 23:56:53;;;;;;;7.05;2.60;;;14.30;73.10;;;;;;10487728;28;20028;-55
